sensor_id;sensor_type;location;lat;lon;timestamp;temperature;humidity
2783;DHT22;1399;47.072;15.452;2023-06-22T00:00:53;21.90;92.40
2783;DHT22;1399;47.072;15.452;2023-06-22T00:03:21;21.90;92.50
2783;DHT22;1399;47.072;15.452;2023-06-22T00:05:48;21.90;92.50
2783;DHT22;1399;47.072;15.452;2023-06-22T00:08:15;21.80;92.50
2783;DHT22;1399;47.072;15.452;2023-06-22T00:10:42;21.80;92.50
2783;DHT22;1399;47.072;15.452;2023-06-22T00:13:10;21.80;92.50
2783;DHT22;1399;47.072;15.452;2023-06-22T00:15:37;21.80;92.40
2783;DHT22;1399;47.072;15.452;2023-06-22T00:18:08;21.80;92.50
2783;DHT22;1399;47.072;15.452;2023-06-22T00:20:34;21.80;92.50
2783;DHT22;1399;47.072;15.452;2023-06-22T00:23:04;21.80;92.50
2783;DHT22;1399;47.072;15.452;2023-06-22T00:25:40;21.70;92.40
2783;DHT22;1399;47.072;15.452;2023-06-22T00:28:07;21.70;92.40
2783;DHT22;1399;47.072;15.452;2023-06-22T00:30:34;21.70;92.40
2783;DHT22;1399;47.072;15.452;2023-06-22T00:33:00;21.70;92.40
2783;DHT22;1399;47.072;15.452;2023-06-22T00:35:27;21.70;92.50
2783;DHT22;1399;47.072;15.452;2023-06-22T00:37:56;21.70;92.50
2783;DHT22;1399;47.072;15.452;2023-06-22T00:40:31;21.70;92.50
2783;DHT22;1399;47.072;15.452;2023-06-22T00:42:58;21.60;92.50
2783;DHT22;1399;47.072;15.452;2023-06-22T00:45:24;21.60;92.50
2783;DHT22;1399;47.072;15.452;2023-06-22T00:47:56;21.60;92.50
2783;DHT22;1399;47.072;15.452;2023-06-22T00:50:25;21.60;92.60
2783;DHT22;1399;47.072;15.452;2023-06-22T00:52:53;21.60;92.60
2783;DHT22;1399;47.072;15.452;2023-06-22T00:55:20;21.60;92.60
2783;DHT22;1399;47.072;15.452;2023-06-22T00:57:47;21.60;92.70
2783;DHT22;1399;47.072;15.452;2023-06-22T01:00:15;21.50;92.70
2783;DHT22;1399;47.072;15.452;2023-06-22T01:02:46;21.50;92.70
2783;DHT22;1399;47.072;15.452;2023-06-22T01:05:20;21.50;92.70
2783;DHT22;1399;47.072;15.452;2023-06-22T01:10:59;21.50;92.80
2783;DHT22;1399;47.072;15.452;2023-06-22T01:16:19;21.40;92.80
2783;DHT22;1399;47.072;15.452;2023-06-22T01:18:48;21.40;92.70
2783;DHT22;1399;47.072;15.452;2023-06-22T01:21:19;21.40;92.80
2783;DHT22;1399;47.072;15.452;2023-06-22T01:26:25;21.40;92.80
2783;DHT22;1399;47.072;15.452;2023-06-22T01:28:55;21.40;92.80
2783;DHT22;1399;47.072;15.452;2023-06-22T01:31:27;21.30;93.10
2783;DHT22;1399;47.072;15.452;2023-06-22T01:33:58;21.30;92.70
2783;DHT22;1399;47.072;15.452;2023-06-22T01:36:26;21.30;92.70
2783;DHT22;1399;47.072;15.452;2023-06-22T01:38:53;21.30;92.60
2783;DHT22;1399;47.072;15.452;2023-06-22T01:41:20;21.30;92.60
2783;DHT22;1399;47.072;15.452;2023-06-22T01:43:47;21.30;92.60
2783;DHT22;1399;47.072;15.452;2023-06-22T01:46:14;21.30;92.50
2783;DHT22;1399;47.072;15.452;2023-06-22T01:48:41;21.30;92.50
2783;DHT22;1399;47.072;15.452;2023-06-22T01:51:07;21.30;92.50
2783;DHT22;1399;47.072;15.452;2023-06-22T01:53:33;21.20;92.50
2783;DHT22;1399;47.072;15.452;2023-06-22T01:55:59;21.20;92.50
2783;DHT22;1399;47.072;15.452;2023-06-22T01:58:27;21.20;92.50
2783;DHT22;1399;47.072;15.452;2023-06-22T02:01:20;21.20;92.60
2783;DHT22;1399;47.072;15.452;2023-06-22T02:04:18;21.20;92.60
2783;DHT22;1399;47.072;15.452;2023-06-22T02:06:47;21.20;92.60
2783;DHT22;1399;47.072;15.452;2023-06-22T02:09:17;21.20;92.60
2783;DHT22;1399;47.072;15.452;2023-06-22T02:11:46;21.20;92.60
2783;DHT22;1399;47.072;15.452;2023-06-22T02:14:14;21.20;92.60
2783;DHT22;1399;47.072;15.452;2023-06-22T02:16:41;21.10;92.50
2783;DHT22;1399;47.072;15.452;2023-06-22T02:19:07;21.10;92.50
2783;DHT22;1399;47.072;15.452;2023-06-22T02:21:34;21.10;92.50
2783;DHT22;1399;47.072;15.452;2023-06-22T02:24:00;21.10;92.50
2783;DHT22;1399;47.072;15.452;2023-06-22T02:26:27;21.10;92.60
2783;DHT22;1399;47.072;15.452;2023-06-22T02:28:53;21.10;92.60
2783;DHT22;1399;47.072;15.452;2023-06-22T02:31:19;21.10;92.70
2783;DHT22;1399;47.072;15.452;2023-06-22T02:33:46;21.10;92.70
2783;DHT22;1399;47.072;15.452;2023-06-22T02:36:11;21.00;92.70
2783;DHT22;1399;47.072;15.452;2023-06-22T02:38:41;21.00;92.70
2783;DHT22;1399;47.072;15.452;2023-06-22T02:41:13;21.00;92.80
2783;DHT22;1399;47.072;15.452;2023-06-22T02:43:45;21.00;92.80
2783;DHT22;1399;47.072;15.452;2023-06-22T02:46:11;21.00;92.80
2783;DHT22;1399;47.072;15.452;2023-06-22T02:48:39;21.00;92.80
2783;DHT22;1399;47.072;15.452;2023-06-22T02:51:05;20.90;92.80
2783;DHT22;1399;47.072;15.452;2023-06-22T02:53:33;20.90;92.80
2783;DHT22;1399;47.072;15.452;2023-06-22T02:55:59;20.90;92.80
2783;DHT22;1399;47.072;15.452;2023-06-22T02:58:27;20.90;92.80
2783;DHT22;1399;47.072;15.452;2023-06-22T03:00:53;20.90;92.80
2783;DHT22;1399;47.072;15.452;2023-06-22T03:03:19;20.90;92.70
2783;DHT22;1399;47.072;15.452;2023-06-22T03:05:45;20.90;92.70
2783;DHT22;1399;47.072;15.452;2023-06-22T03:08:11;20.90;92.70
2783;DHT22;1399;47.072;15.452;2023-06-22T03:10:37;20.90;92.70
2783;DHT22;1399;47.072;15.452;2023-06-22T03:13:03;20.90;92.70
2783;DHT22;1399;47.072;15.452;2023-06-22T03:15:29;20.90;92.60
2783;DHT22;1399;47.072;15.452;2023-06-22T03:17:56;20.90;92.60
2783;DHT22;1399;47.072;15.452;2023-06-22T03:20:22;20.90;92.60
2783;DHT22;1399;47.072;15.452;2023-06-22T03:22:48;20.90;92.60
2783;DHT22;1399;47.072;15.452;2023-06-22T03:25:14;20.90;92.60
2783;DHT22;1399;47.072;15.452;2023-06-22T03:27:43;20.90;92.60
2783;DHT22;1399;47.072;15.452;2023-06-22T03:30:13;20.90;92.60
2783;DHT22;1399;47.072;15.452;2023-06-22T03:32:39;20.90;92.60
2783;DHT22;1399;47.072;15.452;2023-06-22T03:35:05;20.90;92.60
2783;DHT22;1399;47.072;15.452;2023-06-22T03:37:32;20.90;92.70
2783;DHT22;1399;47.072;15.452;2023-06-22T03:39:58;20.90;92.70
2783;DHT22;1399;47.072;15.452;2023-06-22T03:42:25;20.90;92.70
2783;DHT22;1399;47.072;15.452;2023-06-22T03:44:51;21.00;92.70
2783;DHT22;1399;47.072;15.452;2023-06-22T03:47:17;21.00;92.70
2783;DHT22;1399;47.072;15.452;2023-06-22T03:49:44;21.00;92.70
2783;DHT22;1399;47.072;15.452;2023-06-22T03:52:10;21.00;92.70
2783;DHT22;1399;47.072;15.452;2023-06-22T03:54:36;21.00;92.70
2783;DHT22;1399;47.072;15.452;2023-06-22T03:57:02;21.00;92.70
2783;DHT22;1399;47.072;15.452;2023-06-22T03:59:28;21.00;92.70
2783;DHT22;1399;47.072;15.452;2023-06-22T04:01:54;21.10;92.70
2783;DHT22;1399;47.072;15.452;2023-06-22T04:04:20;21.10;92.70
2783;DHT22;1399;47.072;15.452;2023-06-22T04:06:46;21.10;92.70
2783;DHT22;1399;47.072;15.452;2023-06-22T04:09:12;21.10;92.60
2783;DHT22;1399;47.072;15.452;2023-06-22T04:11:38;21.10;92.60
2783;DHT22;1399;47.072;15.452;2023-06-22T04:14:03;21.10;92.60
2783;DHT22;1399;47.072;15.452;2023-06-22T04:16:29;21.20;92.60
2783;DHT22;1399;47.072;15.452;2023-06-22T04:18:56;21.20;92.60
2783;DHT22;1399;47.072;15.452;2023-06-22T04:21:21;21.20;92.60
2783;DHT22;1399;47.072;15.452;2023-06-22T04:23:47;21.20;92.60
2783;DHT22;1399;47.072;15.452;2023-06-22T04:26:13;21.20;92.50
2783;DHT22;1399;47.072;15.452;2023-06-22T04:28:42;21.20;92.50
2783;DHT22;1399;47.072;15.452;2023-06-22T04:31:08;21.30;92.50
2783;DHT22;1399;47.072;15.452;2023-06-22T04:33:34;21.30;92.40
2783;DHT22;1399;47.072;15.452;2023-06-22T04:36:00;21.30;92.40
2783;DHT22;1399;47.072;15.452;2023-06-22T04:38:26;21.40;92.30
2783;DHT22;1399;47.072;15.452;2023-06-22T04:40:53;21.40;92.20
2783;DHT22;1399;47.072;15.452;2023-06-22T04:43:19;21.40;92.10
2783;DHT22;1399;47.072;15.452;2023-06-22T04:45:45;21.50;92.10
2783;DHT22;1399;47.072;15.452;2023-06-22T04:48:12;21.50;92.00
2783;DHT22;1399;47.072;15.452;2023-06-22T04:50:41;21.50;91.90
2783;DHT22;1399;47.072;15.452;2023-06-22T04:53:07;21.60;91.90
2783;DHT22;1399;47.072;15.452;2023-06-22T04:55:35;21.60;91.80
2783;DHT22;1399;47.072;15.452;2023-06-22T04:58:03;21.70;91.80
2783;DHT22;1399;47.072;15.452;2023-06-22T05:00:30;21.70;91.70
2783;DHT22;1399;47.072;15.452;2023-06-22T05:02:57;21.80;91.70
2783;DHT22;1399;47.072;15.452;2023-06-22T05:05:24;21.80;91.60
2783;DHT22;1399;47.072;15.452;2023-06-22T05:07:51;21.80;91.50
2783;DHT22;1399;47.072;15.452;2023-06-22T05:10:25;21.90;91.50
2783;DHT22;1399;47.072;15.452;2023-06-22T05:12:51;21.90;91.40
2783;DHT22;1399;47.072;15.452;2023-06-22T05:15:16;21.90;91.30
2783;DHT22;1399;47.072;15.452;2023-06-22T05:17:44;22.00;91.30
2783;DHT22;1399;47.072;15.452;2023-06-22T05:20:11;22.00;91.20
2783;DHT22;1399;47.072;15.452;2023-06-22T05:22:38;22.10;91.10
2783;DHT22;1399;47.072;15.452;2023-06-22T05:25:07;22.10;91.00
2783;DHT22;1399;47.072;15.452;2023-06-22T05:27:33;22.20;90.90
2783;DHT22;1399;47.072;15.452;2023-06-22T05:29:59;22.20;90.70
2783;DHT22;1399;47.072;15.452;2023-06-22T05:32:25;22.30;90.70
2783;DHT22;1399;47.072;15.452;2023-06-22T05:34:50;22.30;90.50
2783;DHT22;1399;47.072;15.452;2023-06-22T05:37:16;22.40;90.40
2783;DHT22;1399;47.072;15.452;2023-06-22T05:39:42;22.50;90.30
2783;DHT22;1399;47.072;15.452;2023-06-22T05:42:08;22.50;90.20
2783;DHT22;1399;47.072;15.452;2023-06-22T05:44:34;22.60;90.10
2783;DHT22;1399;47.072;15.452;2023-06-22T05:46:59;22.70;90.00
2783;DHT22;1399;47.072;15.452;2023-06-22T05:49:25;22.70;89.60
2783;DHT22;1399;47.072;15.452;2023-06-22T05:51:58;22.80;89.00
2783;DHT22;1399;47.072;15.452;2023-06-22T05:54:24;22.90;88.40
2783;DHT22;1399;47.072;15.452;2023-06-22T05:56:50;23.00;87.70
2783;DHT22;1399;47.072;15.452;2023-06-22T05:59:15;23.10;87.10
2783;DHT22;1399;47.072;15.452;2023-06-22T06:01:41;23.10;86.50
2783;DHT22;1399;47.072;15.452;2023-06-22T06:04:07;23.20;86.00
2783;DHT22;1399;47.072;15.452;2023-06-22T06:06:34;23.20;85.40
2783;DHT22;1399;47.072;15.452;2023-06-22T06:09:00;23.40;85.00
2783;DHT22;1399;47.072;15.452;2023-06-22T06:11:26;23.50;84.60
2783;DHT22;1399;47.072;15.452;2023-06-22T06:13:52;23.60;84.20
2783;DHT22;1399;47.072;15.452;2023-06-22T06:16:18;23.60;83.60
2783;DHT22;1399;47.072;15.452;2023-06-22T06:18:43;23.80;83.40
2783;DHT22;1399;47.072;15.452;2023-06-22T06:21:09;24.00;83.10
2783;DHT22;1399;47.072;15.452;2023-06-22T06:23:35;24.70;82.40
2783;DHT22;1399;47.072;15.452;2023-06-22T06:26:01;25.90;79.20
2783;DHT22;1399;47.072;15.452;2023-06-22T06:28:26;27.10;74.60
2783;DHT22;1399;47.072;15.452;2023-06-22T06:30:53;28.10;69.60
2783;DHT22;1399;47.072;15.452;2023-06-22T06:33:19;29.00;65.40
2783;DHT22;1399;47.072;15.452;2023-06-22T06:35:46;29.80;61.70
2783;DHT22;1399;47.072;15.452;2023-06-22T06:38:12;30.40;59.20
2783;DHT22;1399;47.072;15.452;2023-06-22T06:40:37;31.00;57.50
2783;DHT22;1399;47.072;15.452;2023-06-22T06:43:03;31.30;56.20
2783;DHT22;1399;47.072;15.452;2023-06-22T06:45:29;31.70;55.10
2783;DHT22;1399;47.072;15.452;2023-06-22T06:47:56;32.00;54.30
2783;DHT22;1399;47.072;15.452;2023-06-22T06:50:22;32.30;53.50
2783;DHT22;1399;47.072;15.452;2023-06-22T06:52:48;32.50;52.80
2783;DHT22;1399;47.072;15.452;2023-06-22T06:55:15;32.70;52.30
2783;DHT22;1399;47.072;15.452;2023-06-22T06:57:42;32.80;51.80
2783;DHT22;1399;47.072;15.452;2023-06-22T07:00:12;33.00;51.50
2783;DHT22;1399;47.072;15.452;2023-06-22T07:02:43;33.10;51.10
2783;DHT22;1399;47.072;15.452;2023-06-22T07:05:10;33.20;50.90
2783;DHT22;1399;47.072;15.452;2023-06-22T07:07:36;33.30;50.70
2783;DHT22;1399;47.072;15.452;2023-06-22T07:10:03;33.30;50.60
2783;DHT22;1399;47.072;15.452;2023-06-22T07:12:29;33.10;50.50
2783;DHT22;1399;47.072;15.452;2023-06-22T07:15:03;33.00;50.60
2783;DHT22;1399;47.072;15.452;2023-06-22T07:17:29;32.80;50.90
2783;DHT22;1399;47.072;15.452;2023-06-22T07:19:55;32.40;51.20
2783;DHT22;1399;47.072;15.452;2023-06-22T07:22:21;32.10;51.80
2783;DHT22;1399;47.072;15.452;2023-06-22T07:24:46;31.70;52.50
2783;DHT22;1399;47.072;15.452;2023-06-22T07:27:12;31.30;53.10
2783;DHT22;1399;47.072;15.452;2023-06-22T07:29:38;31.10;53.90
2783;DHT22;1399;47.072;15.452;2023-06-22T07:32:06;30.80;54.60
2783;DHT22;1399;47.072;15.452;2023-06-22T07:34:32;30.50;55.20
2783;DHT22;1399;47.072;15.452;2023-06-22T07:36:59;30.30;55.90
2783;DHT22;1399;47.072;15.452;2023-06-22T07:39:24;30.10;56.40
2783;DHT22;1399;47.072;15.452;2023-06-22T07:41:52;29.90;56.90
2783;DHT22;1399;47.072;15.452;2023-06-22T07:44:19;29.80;57.50
2783;DHT22;1399;47.072;15.452;2023-06-22T07:46:45;29.60;58.00
2783;DHT22;1399;47.072;15.452;2023-06-22T07:49:11;29.40;58.40
2783;DHT22;1399;47.072;15.452;2023-06-22T07:51:37;29.20;59.00
2783;DHT22;1399;47.072;15.452;2023-06-22T07:54:02;29.10;59.50
2783;DHT22;1399;47.072;15.452;2023-06-22T07:56:28;28.90;60.00
2783;DHT22;1399;47.072;15.452;2023-06-22T07:58:54;28.80;60.60
2783;DHT22;1399;47.072;15.452;2023-06-22T08:01:20;28.60;61.30
2783;DHT22;1399;47.072;15.452;2023-06-22T08:03:49;28.40;61.70
2783;DHT22;1399;47.072;15.452;2023-06-22T08:06:14;28.30;62.30
2783;DHT22;1399;47.072;15.452;2023-06-22T08:08:40;28.20;62.60
2783;DHT22;1399;47.072;15.452;2023-06-22T08:11:08;28.10;63.00
2783;DHT22;1399;47.072;15.452;2023-06-22T08:13:34;28.10;63.50
2783;DHT22;1399;47.072;15.452;2023-06-22T08:15:59;27.90;63.70
2783;DHT22;1399;47.072;15.452;2023-06-22T08:18:25;27.90;64.10
2783;DHT22;1399;47.072;15.452;2023-06-22T08:20:51;27.80;64.30
2783;DHT22;1399;47.072;15.452;2023-06-22T08:23:17;27.70;64.50
2783;DHT22;1399;47.072;15.452;2023-06-22T08:25:42;27.70;64.70
2783;DHT22;1399;47.072;15.452;2023-06-22T08:28:08;27.60;64.80
2783;DHT22;1399;47.072;15.452;2023-06-22T08:30:34;27.60;65.00
2783;DHT22;1399;47.072;15.452;2023-06-22T08:33:00;27.50;65.10
2783;DHT22;1399;47.072;15.452;2023-06-22T08:35:26;27.50;65.30
2783;DHT22;1399;47.072;15.452;2023-06-22T08:37:51;27.50;65.40
2783;DHT22;1399;47.072;15.452;2023-06-22T08:40:20;27.40;65.50
2783;DHT22;1399;47.072;15.452;2023-06-22T08:42:47;27.40;65.60
2783;DHT22;1399;47.072;15.452;2023-06-22T08:45:13;27.30;65.70
2783;DHT22;1399;47.072;15.452;2023-06-22T08:47:40;27.30;65.80
2783;DHT22;1399;47.072;15.452;2023-06-22T08:50:10;27.30;65.90
2783;DHT22;1399;47.072;15.452;2023-06-22T08:52:37;27.30;65.90
2783;DHT22;1399;47.072;15.452;2023-06-22T08:55:03;27.20;65.90
2783;DHT22;1399;47.072;15.452;2023-06-22T08:57:29;27.20;65.90
2783;DHT22;1399;47.072;15.452;2023-06-22T08:59:56;27.20;65.90
2783;DHT22;1399;47.072;15.452;2023-06-22T09:02:27;27.20;65.90
2783;DHT22;1399;47.072;15.452;2023-06-22T09:04:57;27.20;65.90
2783;DHT22;1399;47.072;15.452;2023-06-22T09:07:23;27.20;65.90
2783;DHT22;1399;47.072;15.452;2023-06-22T09:09:50;27.10;65.70
2783;DHT22;1399;47.072;15.452;2023-06-22T09:12:17;27.10;65.80
2783;DHT22;1399;47.072;15.452;2023-06-22T09:14:45;27.10;65.80
2783;DHT22;1399;47.072;15.452;2023-06-22T09:17:12;27.10;65.80
2783;DHT22;1399;47.072;15.452;2023-06-22T09:19:38;27.10;65.80
2783;DHT22;1399;47.072;15.452;2023-06-22T09:22:04;27.10;65.80
2783;DHT22;1399;47.072;15.452;2023-06-22T09:24:32;27.10;66.00
2783;DHT22;1399;47.072;15.452;2023-06-22T09:26:57;27.10;65.90
2783;DHT22;1399;47.072;15.452;2023-06-22T09:29:23;27.10;65.80
2783;DHT22;1399;47.072;15.452;2023-06-22T09:31:49;27.10;65.80
2783;DHT22;1399;47.072;15.452;2023-06-22T09:34:16;27.10;65.80
2783;DHT22;1399;47.072;15.452;2023-06-22T09:36:48;27.10;65.80
2783;DHT22;1399;47.072;15.452;2023-06-22T09:39:14;27.10;65.80
2783;DHT22;1399;47.072;15.452;2023-06-22T09:41:39;27.10;65.80
2783;DHT22;1399;47.072;15.452;2023-06-22T09:44:05;27.10;65.80
2783;DHT22;1399;47.072;15.452;2023-06-22T09:46:31;27.10;66.00
2783;DHT22;1399;47.072;15.452;2023-06-22T09:48:56;27.10;66.10
2783;DHT22;1399;47.072;15.452;2023-06-22T09:51:23;27.00;66.00
2783;DHT22;1399;47.072;15.452;2023-06-22T09:53:50;27.00;66.00
2783;DHT22;1399;47.072;15.452;2023-06-22T09:56:16;27.00;66.10
2783;DHT22;1399;47.072;15.452;2023-06-22T09:58:42;27.00;66.20
2783;DHT22;1399;47.072;15.452;2023-06-22T10:01:08;26.90;66.10
2783;DHT22;1399;47.072;15.452;2023-06-22T10:03:34;26.90;66.20
2783;DHT22;1399;47.072;15.452;2023-06-22T10:06:00;27.00;66.40
2783;DHT22;1399;47.072;15.452;2023-06-22T10:08:25;27.00;66.40
2783;DHT22;1399;47.072;15.452;2023-06-22T10:10:51;26.90;66.30
2783;DHT22;1399;47.072;15.452;2023-06-22T10:13:17;26.90;66.30
2783;DHT22;1399;47.072;15.452;2023-06-22T10:15:43;26.90;66.30
2783;DHT22;1399;47.072;15.452;2023-06-22T10:18:10;26.90;66.60
2783;DHT22;1399;47.072;15.452;2023-06-22T10:20:36;26.90;66.80
2783;DHT22;1399;47.072;15.452;2023-06-22T10:23:02;26.90;66.90
2783;DHT22;1399;47.072;15.452;2023-06-22T10:25:28;26.90;67.00
2783;DHT22;1399;47.072;15.452;2023-06-22T10:27:53;26.90;67.30
2783;DHT22;1399;47.072;15.452;2023-06-22T10:30:19;26.90;67.30
2783;DHT22;1399;47.072;15.452;2023-06-22T10:32:45;26.80;67.40
2783;DHT22;1399;47.072;15.452;2023-06-22T10:35:11;26.80;67.60
2783;DHT22;1399;47.072;15.452;2023-06-22T10:37:38;26.80;67.60
2783;DHT22;1399;47.072;15.452;2023-06-22T10:40:05;26.80;67.90
2783;DHT22;1399;47.072;15.452;2023-06-22T10:42:31;26.80;67.90
2783;DHT22;1399;47.072;15.452;2023-06-22T10:44:56;26.80;67.60
2783;DHT22;1399;47.072;15.452;2023-06-22T10:47:22;26.80;67.60
2783;DHT22;1399;47.072;15.452;2023-06-22T10:49:48;26.80;67.80
2783;DHT22;1399;47.072;15.452;2023-06-22T10:52:13;26.80;67.80
2783;DHT22;1399;47.072;15.452;2023-06-22T10:54:41;26.70;67.70
2783;DHT22;1399;47.072;15.452;2023-06-22T10:57:07;26.70;67.60
2783;DHT22;1399;47.072;15.452;2023-06-22T10:59:32;26.70;67.50
2783;DHT22;1399;47.072;15.452;2023-06-22T11:01:58;26.70;67.40
2783;DHT22;1399;47.072;15.452;2023-06-22T11:04:24;26.70;67.50
2783;DHT22;1399;47.072;15.452;2023-06-22T11:06:51;26.70;67.60
2783;DHT22;1399;47.072;15.452;2023-06-22T11:09:17;26.70;67.60
2783;DHT22;1399;47.072;15.452;2023-06-22T11:11:50;26.60;67.50
2783;DHT22;1399;47.072;15.452;2023-06-22T11:14:19;26.60;67.60
2783;DHT22;1399;47.072;15.452;2023-06-22T11:16:45;26.60;67.50
2783;DHT22;1399;47.072;15.452;2023-06-22T11:19:11;26.60;67.30
2783;DHT22;1399;47.072;15.452;2023-06-22T11:21:37;26.60;67.30
2783;DHT22;1399;47.072;15.452;2023-06-22T11:24:03;26.60;67.10
2783;DHT22;1399;47.072;15.452;2023-06-22T11:26:29;26.60;66.90
2783;DHT22;1399;47.072;15.452;2023-06-22T11:28:55;26.60;66.60
2783;DHT22;1399;47.072;15.452;2023-06-22T11:31:21;26.60;66.80
2783;DHT22;1399;47.072;15.452;2023-06-22T11:33:47;26.60;66.90
2783;DHT22;1399;47.072;15.452;2023-06-22T11:36:14;26.60;66.80
2783;DHT22;1399;47.072;15.452;2023-06-22T11:38:40;26.60;67.00
2783;DHT22;1399;47.072;15.452;2023-06-22T11:41:07;26.60;67.10
2783;DHT22;1399;47.072;15.452;2023-06-22T11:43:33;26.60;67.00
2783;DHT22;1399;47.072;15.452;2023-06-22T11:46:03;26.60;67.00
2783;DHT22;1399;47.072;15.452;2023-06-22T11:48:29;26.60;67.30
2783;DHT22;1399;47.072;15.452;2023-06-22T11:50:55;26.60;67.30
2783;DHT22;1399;47.072;15.452;2023-06-22T11:53:23;26.60;67.30
2783;DHT22;1399;47.072;15.452;2023-06-22T11:55:49;26.60;67.50
2783;DHT22;1399;47.072;15.452;2023-06-22T11:58:15;26.60;67.40
2783;DHT22;1399;47.072;15.452;2023-06-22T12:00:41;26.60;67.70
2783;DHT22;1399;47.072;15.452;2023-06-22T12:03:07;26.60;67.60
2783;DHT22;1399;47.072;15.452;2023-06-22T12:05:33;26.60;67.40
2783;DHT22;1399;47.072;15.452;2023-06-22T12:07:59;26.60;67.10
2783;DHT22;1399;47.072;15.452;2023-06-22T12:10:28;26.60;66.90
2783;DHT22;1399;47.072;15.452;2023-06-22T12:12:56;26.60;66.90
2783;DHT22;1399;47.072;15.452;2023-06-22T12:15:26;26.60;66.90
2783;DHT22;1399;47.072;15.452;2023-06-22T12:17:52;26.60;67.10
2783;DHT22;1399;47.072;15.452;2023-06-22T12:20:18;26.60;67.10
2783;DHT22;1399;47.072;15.452;2023-06-22T12:22:44;26.60;66.60
2783;DHT22;1399;47.072;15.452;2023-06-22T12:25:10;26.60;66.50
2783;DHT22;1399;47.072;15.452;2023-06-22T12:27:36;26.60;66.50
2783;DHT22;1399;47.072;15.452;2023-06-22T12:30:03;26.60;66.40
2783;DHT22;1399;47.072;15.452;2023-06-22T12:32:29;26.70;66.60
2783;DHT22;1399;47.072;15.452;2023-06-22T12:34:56;26.70;66.60
2783;DHT22;1399;47.072;15.452;2023-06-22T12:37:22;26.70;66.70
2783;DHT22;1399;47.072;15.452;2023-06-22T12:39:48;26.70;66.70
2783;DHT22;1399;47.072;15.452;2023-06-22T12:42:15;26.70;66.30
2783;DHT22;1399;47.072;15.452;2023-06-22T12:44:41;26.70;65.90
2783;DHT22;1399;47.072;15.452;2023-06-22T12:47:07;26.70;66.10
2783;DHT22;1399;47.072;15.452;2023-06-22T12:49:37;26.70;66.30
2783;DHT22;1399;47.072;15.452;2023-06-22T12:52:03;26.70;66.40
2783;DHT22;1399;47.072;15.452;2023-06-22T12:54:29;26.70;66.40
2783;DHT22;1399;47.072;15.452;2023-06-22T12:56:55;26.70;66.20
2783;DHT22;1399;47.072;15.452;2023-06-22T12:59:21;26.70;66.50
2783;DHT22;1399;47.072;15.452;2023-06-22T13:01:47;26.70;66.30
2783;DHT22;1399;47.072;15.452;2023-06-22T13:04:13;26.70;65.90
2783;DHT22;1399;47.072;15.452;2023-06-22T13:06:46;26.80;65.90
2783;DHT22;1399;47.072;15.452;2023-06-22T13:09:15;26.70;65.80
2783;DHT22;1399;47.072;15.452;2023-06-22T13:11:42;26.80;65.80
2783;DHT22;1399;47.072;15.452;2023-06-22T13:14:08;26.80;65.60
2783;DHT22;1399;47.072;15.452;2023-06-22T13:16:34;26.80;65.50
2783;DHT22;1399;47.072;15.452;2023-06-22T13:18:59;26.80;65.20
2783;DHT22;1399;47.072;15.452;2023-06-22T13:21:25;26.80;65.10
2783;DHT22;1399;47.072;15.452;2023-06-22T13:23:51;26.80;65.00
2783;DHT22;1399;47.072;15.452;2023-06-22T13:26:17;26.80;64.90
2783;DHT22;1399;47.072;15.452;2023-06-22T13:28:42;26.80;64.50
2783;DHT22;1399;47.072;15.452;2023-06-22T13:31:08;26.80;64.30
2783;DHT22;1399;47.072;15.452;2023-06-22T13:33:34;26.80;64.20
2783;DHT22;1399;47.072;15.452;2023-06-22T13:35:59;26.80;64.10
2783;DHT22;1399;47.072;15.452;2023-06-22T13:38:25;26.80;64.10
2783;DHT22;1399;47.072;15.452;2023-06-22T13:40:51;26.90;64.10
2783;DHT22;1399;47.072;15.452;2023-06-22T13:43:17;26.90;63.90
2783;DHT22;1399;47.072;15.452;2023-06-22T13:45:43;26.90;63.90
2783;DHT22;1399;47.072;15.452;2023-06-22T13:48:09;26.90;63.70
2783;DHT22;1399;47.072;15.452;2023-06-22T13:50:35;26.90;63.30
2783;DHT22;1399;47.072;15.452;2023-06-22T13:53:01;26.90;63.10
2783;DHT22;1399;47.072;15.452;2023-06-22T13:55:26;26.90;63.30
2783;DHT22;1399;47.072;15.452;2023-06-22T13:57:52;26.80;63.20
2783;DHT22;1399;47.072;15.452;2023-06-22T14:00:19;26.80;63.00
2783;DHT22;1399;47.072;15.452;2023-06-22T14:02:45;26.80;62.70
2783;DHT22;1399;47.072;15.452;2023-06-22T14:05:11;26.80;62.70
2783;DHT22;1399;47.072;15.452;2023-06-22T14:07:37;26.80;62.70
2783;DHT22;1399;47.072;15.452;2023-06-22T14:10:03;26.80;62.80
2783;DHT22;1399;47.072;15.452;2023-06-22T14:12:29;26.90;63.20
2783;DHT22;1399;47.072;15.452;2023-06-22T14:14:55;26.80;63.00
2783;DHT22;1399;47.072;15.452;2023-06-22T14:17:21;26.90;63.30
2783;DHT22;1399;47.072;15.452;2023-06-22T14:19:51;26.90;63.30
2783;DHT22;1399;47.072;15.452;2023-06-22T14:22:21;26.80;63.10
2783;DHT22;1399;47.072;15.452;2023-06-22T14:24:48;26.80;63.00
2783;DHT22;1399;47.072;15.452;2023-06-22T14:27:14;26.80;63.10
2783;DHT22;1399;47.072;15.452;2023-06-22T14:29:40;26.80;63.20
2783;DHT22;1399;47.072;15.452;2023-06-22T14:32:07;26.80;63.20
2783;DHT22;1399;47.072;15.452;2023-06-22T14:34:33;26.80;63.30
2783;DHT22;1399;47.072;15.452;2023-06-22T14:37:02;26.80;63.40
2783;DHT22;1399;47.072;15.452;2023-06-22T14:39:28;26.80;63.00
2783;DHT22;1399;47.072;15.452;2023-06-22T14:41:54;26.80;63.30
2783;DHT22;1399;47.072;15.452;2023-06-22T14:44:20;26.80;63.60
2783;DHT22;1399;47.072;15.452;2023-06-22T14:46:45;26.80;63.90
2783;DHT22;1399;47.072;15.452;2023-06-22T14:49:11;26.80;63.80
2783;DHT22;1399;47.072;15.452;2023-06-22T14:51:37;26.80;63.80
2783;DHT22;1399;47.072;15.452;2023-06-22T14:54:03;26.80;64.50
2783;DHT22;1399;47.072;15.452;2023-06-22T14:56:28;26.80;64.40
2783;DHT22;1399;47.072;15.452;2023-06-22T14:58:55;26.80;64.60
2783;DHT22;1399;47.072;15.452;2023-06-22T15:01:21;26.70;64.40
2783;DHT22;1399;47.072;15.452;2023-06-22T15:03:47;26.70;64.40
2783;DHT22;1399;47.072;15.452;2023-06-22T15:06:13;26.70;64.50
2783;DHT22;1399;47.072;15.452;2023-06-22T15:08:40;26.70;64.10
2783;DHT22;1399;47.072;15.452;2023-06-22T15:11:07;26.70;63.90
2783;DHT22;1399;47.072;15.452;2023-06-22T15:13:33;26.70;63.90
2783;DHT22;1399;47.072;15.452;2023-06-22T15:16:03;26.70;63.60
2783;DHT22;1399;47.072;15.452;2023-06-22T15:18:29;26.70;63.80
2783;DHT22;1399;47.072;15.452;2023-06-22T15:20:55;26.60;63.70
2783;DHT22;1399;47.072;15.452;2023-06-22T15:23:20;26.60;63.60
2783;DHT22;1399;47.072;15.452;2023-06-22T15:25:46;26.60;63.60
2783;DHT22;1399;47.072;15.452;2023-06-22T15:28:12;26.60;63.50
2783;DHT22;1399;47.072;15.452;2023-06-22T15:30:38;26.60;64.00
2783;DHT22;1399;47.072;15.452;2023-06-22T15:33:04;26.60;63.90
2783;DHT22;1399;47.072;15.452;2023-06-22T15:35:30;26.60;64.00
2783;DHT22;1399;47.072;15.452;2023-06-22T15:37:55;26.60;64.10
2783;DHT22;1399;47.072;15.452;2023-06-22T15:40:22;26.50;64.00
2783;DHT22;1399;47.072;15.452;2023-06-22T15:42:50;26.50;64.10
2783;DHT22;1399;47.072;15.452;2023-06-22T15:45:15;26.50;64.30
2783;DHT22;1399;47.072;15.452;2023-06-22T15:47:41;26.50;64.40
2783;DHT22;1399;47.072;15.452;2023-06-22T15:50:07;26.50;64.00